Terminal Aerodrome Forecast
Issued by NWS

Home | Current Version | Previous Version | Text Only | Print | Product List | Glossary On
Versions: 1 2 3 4 5 6 7 8 9 10
000
FTUS44 KLUB 262323
TAFCDS
TAF
KCDS 262323Z 2700/2724 05011KT P6SM OVC060
     FM271200 08013KT 1 1/2SM -SN SCT006 OVC015=

USA.gov is the U.S. government's official web portal to all federal, state and local government web resources and services.